sensor_id;sensor_type;location;lat;lon;timestamp;P1;durP1;ratioP1;P2;durP2;ratioP2
56680;SDS011;42558;52.388;13.390;2023-07-31T00:01:01;10.64;;;3.99;;
56680;SDS011;42558;52.388;13.390;2023-07-31T00:03:30;10.83;;;3.99;;
56680;SDS011;42558;52.388;13.390;2023-07-31T00:06:00;10.26;;;4.37;;
56680;SDS011;42558;52.388;13.390;2023-07-31T00:08:30;11.21;;;3.99;;
56680;SDS011;42558;52.388;13.390;2023-07-31T00:11:00;9.88;;;3.99;;
56680;SDS011;42558;52.388;13.390;2023-07-31T00:13:29;7.03;;;3.99;;
56680;SDS011;42558;52.388;13.390;2023-07-31T00:15:57;8.17;;;4.56;;
56680;SDS011;42558;52.388;13.390;2023-07-31T00:18:26;8.74;;;4.56;;
56680;SDS011;42558;52.388;13.390;2023-07-31T00:20:54;9.50;;;3.99;;
56680;SDS011;42558;52.388;13.390;2023-07-31T00:23:23;11.59;;;4.18;;
56680;SDS011;42558;52.388;13.390;2023-07-31T00:25:53;9.31;;;4.18;;
56680;SDS011;42558;52.388;13.390;2023-07-31T00:28:23;8.55;;;3.99;;
56680;SDS011;42558;52.388;13.390;2023-07-31T00:30:53;10.83;;;4.37;;
56680;SDS011;42558;52.388;13.390;2023-07-31T00:33:21;9.12;;;4.18;;
56680;SDS011;42558;52.388;13.390;2023-07-31T00:35:50;9.12;;;3.99;;
56680;SDS011;42558;52.388;13.390;2023-07-31T00:38:19;8.93;;;4.18;;
56680;SDS011;42558;52.388;13.390;2023-07-31T00:40:49;8.93;;;3.99;;
56680;SDS011;42558;52.388;13.390;2023-07-31T00:43:18;7.03;;;3.99;;
56680;SDS011;42558;52.388;13.390;2023-07-31T00:45:47;9.88;;;3.80;;
56680;SDS011;42558;52.388;13.390;2023-07-31T00:48:16;8.55;;;3.99;;
56680;SDS011;42558;52.388;13.390;2023-07-31T00:50:48;10.07;;;3.80;;
56680;SDS011;42558;52.388;13.390;2023-07-31T00:53:17;10.07;;;4.18;;
56680;SDS011;42558;52.388;13.390;2023-07-31T00:55:46;11.21;;;3.99;;
56680;SDS011;42558;52.388;13.390;2023-07-31T00:58:16;13.87;;;3.80;;
56680;SDS011;42558;52.388;13.390;2023-07-31T01:00:46;9.88;;;3.99;;
56680;SDS011;42558;52.388;13.390;2023-07-31T01:03:17;13.30;;;4.75;;
56680;SDS011;42558;52.388;13.390;2023-07-31T01:09:09;10.45;;;4.18;;
56680;SDS011;42558;52.388;13.390;2023-07-31T01:12:00;11.21;;;4.56;;
56680;SDS011;42558;52.388;13.390;2023-07-31T01:14:30;11.97;;;5.13;;
56680;SDS011;42558;52.388;13.390;2023-07-31T01:16:58;11.40;;;4.75;;
56680;SDS011;42558;52.388;13.390;2023-07-31T01:19:27;11.40;;;4.94;;
56680;SDS011;42558;52.388;13.390;2023-07-31T01:25:19;13.68;;;4.94;;
56680;SDS011;42558;52.388;13.390;2023-07-31T01:28:28;10.83;;;4.75;;
56680;SDS011;42558;52.388;13.390;2023-07-31T01:31:18;8.74;;;4.56;;
56680;SDS011;42558;52.388;13.390;2023-07-31T01:33:54;14.06;;;5.32;;
56680;SDS011;42558;52.388;13.390;2023-07-31T01:36:28;10.07;;;4.94;;
56680;SDS011;42558;52.388;13.390;2023-07-31T01:39:01;10.07;;;4.75;;
56680;SDS011;42558;52.388;13.390;2023-07-31T01:41:32;10.83;;;4.94;;
56680;SDS011;42558;52.388;13.390;2023-07-31T01:44:02;10.26;;;5.13;;
56680;SDS011;42558;52.388;13.390;2023-07-31T01:46:31;10.26;;;5.51;;
56680;SDS011;42558;52.388;13.390;2023-07-31T01:49:01;14.06;;;5.32;;
56680;SDS011;42558;52.388;13.390;2023-07-31T01:51:31;12.54;;;5.89;;
56680;SDS011;42558;52.388;13.390;2023-07-31T01:54:04;11.02;;;4.94;;
56680;SDS011;42558;52.388;13.390;2023-07-31T01:56:35;12.16;;;5.13;;
56680;SDS011;42558;52.388;13.390;2023-07-31T01:59:03;15.96;;;5.32;;
56680;SDS011;42558;52.388;13.390;2023-07-31T02:01:32;10.26;;;4.94;;
56680;SDS011;42558;52.388;13.390;2023-07-31T02:04:00;8.55;;;4.94;;
56680;SDS011;42558;52.388;13.390;2023-07-31T02:06:28;11.40;;;6.08;;
56680;SDS011;42558;52.388;13.390;2023-07-31T02:08:57;11.40;;;6.08;;
56680;SDS011;42558;52.388;13.390;2023-07-31T02:11:25;9.69;;;5.13;;
56680;SDS011;42558;52.388;13.390;2023-07-31T02:13:54;12.16;;;5.89;;
56680;SDS011;42558;52.388;13.390;2023-07-31T02:16:22;12.54;;;6.08;;
56680;SDS011;42558;52.388;13.390;2023-07-31T02:18:51;10.26;;;5.32;;
56680;SDS011;42558;52.388;13.390;2023-07-31T02:21:20;10.26;;;5.32;;
56680;SDS011;42558;52.388;13.390;2023-07-31T02:23:48;12.16;;;5.51;;
56680;SDS011;42558;52.388;13.390;2023-07-31T02:26:18;14.44;;;5.89;;
56680;SDS011;42558;52.388;13.390;2023-07-31T02:28:46;12.16;;;6.65;;
56680;SDS011;42558;52.388;13.390;2023-07-31T02:31:14;10.26;;;6.46;;
56680;SDS011;42558;52.388;13.390;2023-07-31T02:33:45;12.92;;;6.08;;
56680;SDS011;42558;52.388;13.390;2023-07-31T02:36:15;11.78;;;6.08;;
56680;SDS011;42558;52.388;13.390;2023-07-31T02:38:42;11.78;;;5.32;;
56680;SDS011;42558;52.388;13.390;2023-07-31T02:41:12;9.69;;;5.89;;
56680;SDS011;42558;52.388;13.390;2023-07-31T02:43:42;13.30;;;6.46;;
56680;SDS011;42558;52.388;13.390;2023-07-31T02:46:12;11.78;;;5.51;;
56680;SDS011;42558;52.388;13.390;2023-07-31T02:48:42;13.68;;;7.03;;
56680;SDS011;42558;52.388;13.390;2023-07-31T02:51:11;12.35;;;6.46;;
56680;SDS011;42558;52.388;13.390;2023-07-31T02:53:40;12.92;;;6.46;;
56680;SDS011;42558;52.388;13.390;2023-07-31T02:56:11;13.68;;;6.65;;
56680;SDS011;42558;52.388;13.390;2023-07-31T02:58:41;11.78;;;6.65;;
56680;SDS011;42558;52.388;13.390;2023-07-31T03:01:09;13.68;;;6.46;;
56680;SDS011;42558;52.388;13.390;2023-07-31T03:03:38;12.92;;;7.60;;
56680;SDS011;42558;52.388;13.390;2023-07-31T03:06:07;14.44;;;6.46;;
56680;SDS011;42558;52.388;13.390;2023-07-31T03:08:37;12.35;;;7.03;;
56680;SDS011;42558;52.388;13.390;2023-07-31T03:11:05;13.11;;;7.03;;
56680;SDS011;42558;52.388;13.390;2023-07-31T03:13:35;14.25;;;7.22;;
56680;SDS011;42558;52.388;13.390;2023-07-31T03:16:04;11.21;;;6.84;;
56680;SDS011;42558;52.388;13.390;2023-07-31T03:18:33;17.86;;;7.98;;
56680;SDS011;42558;52.388;13.390;2023-07-31T03:21:01;13.68;;;7.03;;
56680;SDS011;42558;52.388;13.390;2023-07-31T03:23:31;13.11;;;6.65;;
56680;SDS011;42558;52.388;13.390;2023-07-31T03:26:05;12.92;;;7.03;;
56680;SDS011;42558;52.388;13.390;2023-07-31T03:28:34;12.54;;;6.46;;
56680;SDS011;42558;52.388;13.390;2023-07-31T03:31:03;12.16;;;6.65;;
56680;SDS011;42558;52.388;13.390;2023-07-31T03:33:33;12.73;;;7.79;;
56680;SDS011;42558;52.388;13.390;2023-07-31T03:36:03;15.39;;;6.84;;
56680;SDS011;42558;52.388;13.390;2023-07-31T03:38:31;14.82;;;6.65;;
56680;SDS011;42558;52.388;13.390;2023-07-31T03:41:01;12.54;;;6.46;;
56680;SDS011;42558;52.388;13.390;2023-07-31T03:43:31;12.54;;;7.03;;
56680;SDS011;42558;52.388;13.390;2023-07-31T03:46:03;11.97;;;7.22;;
56680;SDS011;42558;52.388;13.390;2023-07-31T03:48:33;14.25;;;7.22;;
56680;SDS011;42558;52.388;13.390;2023-07-31T03:51:03;15.01;;;7.03;;
56680;SDS011;42558;52.388;13.390;2023-07-31T03:53:33;13.11;;;7.41;;
56680;SDS011;42558;52.388;13.390;2023-07-31T03:56:01;13.11;;;6.84;;
56680;SDS011;42558;52.388;13.390;2023-07-31T03:58:31;12.35;;;6.27;;
56680;SDS011;42558;52.388;13.390;2023-07-31T04:01:00;14.44;;;7.41;;
56680;SDS011;42558;52.388;13.390;2023-07-31T04:03:30;9.69;;;6.46;;
56680;SDS011;42558;52.388;13.390;2023-07-31T04:06:00;10.45;;;6.65;;
56680;SDS011;42558;52.388;13.390;2023-07-31T04:08:30;13.68;;;7.79;;
56680;SDS011;42558;52.388;13.390;2023-07-31T04:11:00;12.73;;;7.22;;
56680;SDS011;42558;52.388;13.390;2023-07-31T04:13:30;12.92;;;6.65;;
56680;SDS011;42558;52.388;13.390;2023-07-31T04:16:00;15.58;;;7.79;;
56680;SDS011;42558;52.388;13.390;2023-07-31T04:18:31;15.01;;;7.79;;
56680;SDS011;42558;52.388;13.390;2023-07-31T04:21:01;16.53;;;6.84;;
56680;SDS011;42558;52.388;13.390;2023-07-31T04:23:32;16.53;;;6.65;;
56680;SDS011;42558;52.388;13.390;2023-07-31T04:26:00;12.35;;;7.03;;
56680;SDS011;42558;52.388;13.390;2023-07-31T04:28:28;12.92;;;7.03;;
56680;SDS011;42558;52.388;13.390;2023-07-31T04:31:00;15.01;;;8.17;;
56680;SDS011;42558;52.388;13.390;2023-07-31T04:33:30;14.44;;;6.84;;
56680;SDS011;42558;52.388;13.390;2023-07-31T04:36:00;11.21;;;6.27;;
56680;SDS011;42558;52.388;13.390;2023-07-31T04:38:28;13.30;;;7.03;;
56680;SDS011;42558;52.388;13.390;2023-07-31T04:40:57;11.78;;;7.22;;
56680;SDS011;42558;52.388;13.390;2023-07-31T04:43:25;14.63;;;7.03;;
56680;SDS011;42558;52.388;13.390;2023-07-31T04:45:56;16.15;;;6.27;;
56680;SDS011;42558;52.388;13.390;2023-07-31T04:48:25;16.15;;;6.65;;
56680;SDS011;42558;52.388;13.390;2023-07-31T04:50:54;13.11;;;6.08;;
56680;SDS011;42558;52.388;13.390;2023-07-31T04:53:24;9.12;;;5.89;;
56680;SDS011;42558;52.388;13.390;2023-07-31T04:55:52;11.59;;;6.65;;
56680;SDS011;42558;52.388;13.390;2023-07-31T04:58:22;17.67;;;6.84;;
56680;SDS011;42558;52.388;13.390;2023-07-31T05:00:53;8.93;;;5.13;;
56680;SDS011;42558;52.388;13.390;2023-07-31T05:03:23;11.40;;;5.89;;
56680;SDS011;42558;52.388;13.390;2023-07-31T05:05:52;11.21;;;5.70;;
56680;SDS011;42558;52.388;13.390;2023-07-31T05:08:21;11.59;;;5.70;;
56680;SDS011;42558;52.388;13.390;2023-07-31T05:10:51;12.92;;;6.08;;
56680;SDS011;42558;52.388;13.390;2023-07-31T05:13:21;11.59;;;5.89;;
56680;SDS011;42558;52.388;13.390;2023-07-31T05:15:48;10.26;;;5.70;;
56680;SDS011;42558;52.388;13.390;2023-07-31T05:18:18;14.25;;;5.51;;
56680;SDS011;42558;52.388;13.390;2023-07-31T05:20:48;10.83;;;4.75;;
56680;SDS011;42558;52.388;13.390;2023-07-31T05:23:18;11.21;;;4.94;;
56680;SDS011;42558;52.388;13.390;2023-07-31T05:25:47;14.06;;;5.51;;
56680;SDS011;42558;52.388;13.390;2023-07-31T05:28:15;13.49;;;5.13;;
56680;SDS011;42558;52.388;13.390;2023-07-31T05:30:45;13.49;;;5.13;;
56680;SDS011;42558;52.388;13.390;2023-07-31T05:33:15;11.21;;;4.94;;
56680;SDS011;42558;52.388;13.390;2023-07-31T05:35:45;12.54;;;5.13;;
56680;SDS011;42558;52.388;13.390;2023-07-31T05:38:16;9.31;;;4.94;;
56680;SDS011;42558;52.388;13.390;2023-07-31T05:40:46;10.07;;;4.37;;
56680;SDS011;42558;52.388;13.390;2023-07-31T05:43:17;9.69;;;4.94;;
56680;SDS011;42558;52.388;13.390;2023-07-31T05:45:47;15.77;;;5.70;;
56680;SDS011;42558;52.388;13.390;2023-07-31T05:48:17;13.87;;;5.51;;
56680;SDS011;42558;52.388;13.390;2023-07-31T05:50:47;11.21;;;4.75;;
56680;SDS011;42558;52.388;13.390;2023-07-31T05:53:17;11.97;;;4.75;;
56680;SDS011;42558;52.388;13.390;2023-07-31T05:55:48;10.64;;;4.56;;
56680;SDS011;42558;52.388;13.390;2023-07-31T05:58:18;13.30;;;5.32;;
56680;SDS011;42558;52.388;13.390;2023-07-31T06:00:48;12.16;;;4.94;;
56680;SDS011;42558;52.388;13.390;2023-07-31T06:03:18;10.45;;;4.75;;
56680;SDS011;42558;52.388;13.390;2023-07-31T06:05:48;11.59;;;5.32;;
56680;SDS011;42558;52.388;13.390;2023-07-31T06:08:18;12.73;;;5.13;;
56680;SDS011;42558;52.388;13.390;2023-07-31T06:10:48;12.35;;;5.13;;
56680;SDS011;42558;52.388;13.390;2023-07-31T06:13:18;12.35;;;4.56;;
56680;SDS011;42558;52.388;13.390;2023-07-31T06:15:48;13.30;;;5.13;;
56680;SDS011;42558;52.388;13.390;2023-07-31T06:18:18;10.26;;;4.94;;
56680;SDS011;42558;52.388;13.390;2023-07-31T06:20:48;12.35;;;6.27;;
56680;SDS011;42558;52.388;13.390;2023-07-31T06:23:23;10.07;;;4.56;;
56680;SDS011;42558;52.388;13.390;2023-07-31T06:25:53;11.97;;;5.13;;
56680;SDS011;42558;52.388;13.390;2023-07-31T06:28:30;16.91;;;5.13;;
56680;SDS011;42558;52.388;13.390;2023-07-31T06:30:58;11.40;;;5.13;;
56680;SDS011;42558;52.388;13.390;2023-07-31T06:33:27;13.68;;;4.37;;
56680;SDS011;42558;52.388;13.390;2023-07-31T06:35:57;12.35;;;4.94;;
56680;SDS011;42558;52.388;13.390;2023-07-31T06:38:26;11.02;;;4.75;;
56680;SDS011;42558;52.388;13.390;2023-07-31T06:40:54;12.35;;;4.56;;
56680;SDS011;42558;52.388;13.390;2023-07-31T06:43:25;10.45;;;4.56;;
56680;SDS011;42558;52.388;13.390;2023-07-31T06:45:55;11.40;;;5.51;;
56680;SDS011;42558;52.388;13.390;2023-07-31T06:48:23;10.07;;;4.56;;
56680;SDS011;42558;52.388;13.390;2023-07-31T06:50:52;9.69;;;4.56;;
56680;SDS011;42558;52.388;13.390;2023-07-31T06:53:22;11.21;;;5.13;;
56680;SDS011;42558;52.388;13.390;2023-07-31T06:55:50;10.83;;;4.94;;
56680;SDS011;42558;52.388;13.390;2023-07-31T06:58:18;14.44;;;5.32;;
56680;SDS011;42558;52.388;13.390;2023-07-31T07:00:47;11.21;;;5.51;;
56680;SDS011;42558;52.388;13.390;2023-07-31T07:03:18;15.01;;;5.70;;
56680;SDS011;42558;52.388;13.390;2023-07-31T07:05:47;10.83;;;4.94;;
56680;SDS011;42558;52.388;13.390;2023-07-31T07:08:15;12.92;;;5.89;;
56680;SDS011;42558;52.388;13.390;2023-07-31T07:10:46;12.92;;;4.75;;
56680;SDS011;42558;52.388;13.390;2023-07-31T07:13:16;11.59;;;5.32;;
56680;SDS011;42558;52.388;13.390;2023-07-31T07:15:48;11.21;;;6.08;;
56680;SDS011;42558;52.388;13.390;2023-07-31T07:18:19;11.40;;;6.08;;
56680;SDS011;42558;52.388;13.390;2023-07-31T07:20:52;12.73;;;5.70;;
56680;SDS011;42558;52.388;13.390;2023-07-31T07:23:24;11.59;;;5.51;;
56680;SDS011;42558;52.388;13.390;2023-07-31T07:25:54;10.45;;;5.51;;
56680;SDS011;42558;52.388;13.390;2023-07-31T07:28:24;10.26;;;4.75;;
56680;SDS011;42558;52.388;13.390;2023-07-31T07:30:54;15.58;;;6.08;;
56680;SDS011;42558;52.388;13.390;2023-07-31T07:33:24;15.01;;;5.70;;
56680;SDS011;42558;52.388;13.390;2023-07-31T07:35:54;12.73;;;5.51;;
56680;SDS011;42558;52.388;13.390;2023-07-31T07:38:24;14.82;;;5.70;;
56680;SDS011;42558;52.388;13.390;2023-07-31T07:40:54;12.35;;;6.08;;
56680;SDS011;42558;52.388;13.390;2023-07-31T07:43:24;11.40;;;5.89;;
56680;SDS011;42558;52.388;13.390;2023-07-31T07:45:54;12.92;;;5.70;;
56680;SDS011;42558;52.388;13.390;2023-07-31T07:48:24;12.73;;;4.94;;
56680;SDS011;42558;52.388;13.390;2023-07-31T07:50:55;12.92;;;5.70;;
56680;SDS011;42558;52.388;13.390;2023-07-31T07:53:25;12.92;;;5.51;;
56680;SDS011;42558;52.388;13.390;2023-07-31T07:55:55;11.59;;;5.32;;
56680;SDS011;42558;52.388;13.390;2023-07-31T07:58:26;11.78;;;5.89;;
56680;SDS011;42558;52.388;13.390;2023-07-31T08:00:56;10.45;;;5.32;;
56680;SDS011;42558;52.388;13.390;2023-07-31T08:03:26;13.11;;;5.51;;
56680;SDS011;42558;52.388;13.390;2023-07-31T08:06:00;10.45;;;5.32;;
56680;SDS011;42558;52.388;13.390;2023-07-31T08:08:31;14.44;;;6.65;;
56680;SDS011;42558;52.388;13.390;2023-07-31T08:11:01;12.35;;;5.51;;
56680;SDS011;42558;52.388;13.390;2023-07-31T08:13:31;8.93;;;5.51;;
56680;SDS011;42558;52.388;13.390;2023-07-31T08:16:01;11.78;;;5.70;;
56680;SDS011;42558;52.388;13.390;2023-07-31T08:18:31;11.40;;;6.08;;
56680;SDS011;42558;52.388;13.390;2023-07-31T08:21:02;10.64;;;5.13;;
56680;SDS011;42558;52.388;13.390;2023-07-31T08:23:32;11.59;;;6.27;;
56680;SDS011;42558;52.388;13.390;2023-07-31T08:26:02;10.45;;;5.32;;
56680;SDS011;42558;52.388;13.390;2023-07-31T08:28:32;11.21;;;5.70;;
56680;SDS011;42558;52.388;13.390;2023-07-31T08:31:02;11.59;;;5.70;;
56680;SDS011;42558;52.388;13.390;2023-07-31T08:33:32;13.49;;;5.89;;
56680;SDS011;42558;52.388;13.390;2023-07-31T08:36:02;15.20;;;6.46;;
56680;SDS011;42558;52.388;13.390;2023-07-31T08:38:33;13.30;;;5.89;;
56680;SDS011;42558;52.388;13.390;2023-07-31T08:41:04;10.26;;;5.32;;
56680;SDS011;42558;52.388;13.390;2023-07-31T08:43:36;10.45;;;5.13;;
56680;SDS011;42558;52.388;13.390;2023-07-31T08:46:07;13.30;;;5.89;;
56680;SDS011;42558;52.388;13.390;2023-07-31T08:48:39;10.07;;;4.75;;
56680;SDS011;42558;52.388;13.390;2023-07-31T08:51:11;12.92;;;5.32;;
56680;SDS011;42558;52.388;13.390;2023-07-31T08:53:43;8.74;;;4.37;;
56680;SDS011;42558;52.388;13.390;2023-07-31T08:56:13;8.74;;;5.13;;
56680;SDS011;42558;52.388;13.390;2023-07-31T08:58:46;8.93;;;4.56;;
56680;SDS011;42558;52.388;13.390;2023-07-31T09:01:18;8.55;;;4.37;;
56680;SDS011;42558;52.388;13.390;2023-07-31T09:03:49;8.17;;;4.18;;
56680;SDS011;42558;52.388;13.390;2023-07-31T09:06:23;7.79;;;3.99;;
56680;SDS011;42558;52.388;13.390;2023-07-31T09:08:56;10.26;;;4.37;;
56680;SDS011;42558;52.388;13.390;2023-07-31T09:11:27;9.12;;;3.42;;
56680;SDS011;42558;52.388;13.390;2023-07-31T09:13:57;6.65;;;3.23;;
56680;SDS011;42558;52.388;13.390;2023-07-31T09:16:28;7.98;;;3.04;;
56680;SDS011;42558;52.388;13.390;2023-07-31T09:19:02;7.98;;;2.85;;
56680;SDS011;42558;52.388;13.390;2023-07-31T09:21:30;9.50;;;2.66;;
56680;SDS011;42558;52.388;13.390;2023-07-31T09:23:58;5.70;;;2.28;;
56680;SDS011;42558;52.388;13.390;2023-07-31T09:26:35;6.08;;;2.66;;
56680;SDS011;42558;52.388;13.390;2023-07-31T09:29:18;6.08;;;2.09;;
56680;SDS011;42558;52.388;13.390;2023-07-31T09:31:50;5.89;;;1.90;;
56680;SDS011;42558;52.388;13.390;2023-07-31T09:34:28;5.51;;;1.71;;
56680;SDS011;42558;52.388;13.390;2023-07-31T09:37:01;6.08;;;1.52;;
56680;SDS011;42558;52.388;13.390;2023-07-31T09:39:32;6.46;;;2.28;;
56680;SDS011;42558;52.388;13.390;2023-07-31T09:42:24;7.41;;;2.66;;
56680;SDS011;42558;52.388;13.390;2023-07-31T09:45:07;9.88;;;4.56;;
56680;SDS011;42558;52.388;13.390;2023-07-31T09:47:36;11.97;;;3.61;;
56680;SDS011;42558;52.388;13.390;2023-07-31T09:50:09;9.31;;;3.80;;
56680;SDS011;42558;52.388;13.390;2023-07-31T09:52:39;10.45;;;4.18;;
56680;SDS011;42558;52.388;13.390;2023-07-31T09:55:10;8.93;;;3.80;;
56680;SDS011;42558;52.388;13.390;2023-07-31T09:57:42;10.26;;;4.37;;
56680;SDS011;42558;52.388;13.390;2023-07-31T10:00:16;13.30;;;5.32;;
56680;SDS011;42558;52.388;13.390;2023-07-31T10:02:50;8.17;;;3.99;;
56680;SDS011;42558;52.388;13.390;2023-07-31T10:05:22;8.74;;;4.37;;
56680;SDS011;42558;52.388;13.390;2023-07-31T10:07:54;10.26;;;4.94;;
56680;SDS011;42558;52.388;13.390;2023-07-31T10:10:26;9.69;;;5.13;;
56680;SDS011;42558;52.388;13.390;2023-07-31T10:12:59;15.77;;;5.51;;
56680;SDS011;42558;52.388;13.390;2023-07-31T10:15:30;12.54;;;5.13;;
56680;SDS011;42558;52.388;13.390;2023-07-31T10:18:02;10.64;;;5.13;;
56680;SDS011;42558;52.388;13.390;2023-07-31T10:20:35;14.25;;;5.89;;
56680;SDS011;42558;52.388;13.390;2023-07-31T10:23:06;12.54;;;6.27;;
56680;SDS011;42558;52.388;13.390;2023-07-31T10:25:38;11.78;;;5.51;;
56680;SDS011;42558;52.388;13.390;2023-07-31T10:28:10;12.73;;;5.89;;
56680;SDS011;42558;52.388;13.390;2023-07-31T10:30:41;14.06;;;6.46;;
56680;SDS011;42558;52.388;13.390;2023-07-31T10:33:12;11.97;;;5.70;;
56680;SDS011;42558;52.388;13.390;2023-07-31T10:35:42;13.30;;;6.65;;
56680;SDS011;42558;52.388;13.390;2023-07-31T10:38:12;12.54;;;6.27;;
56680;SDS011;42558;52.388;13.390;2023-07-31T10:40:43;12.92;;;5.89;;
56680;SDS011;42558;52.388;13.390;2023-07-31T10:43:24;12.35;;;6.08;;
56680;SDS011;42558;52.388;13.390;2023-07-31T10:45:56;11.40;;;5.32;;
56680;SDS011;42558;52.388;13.390;2023-07-31T10:48:33;13.30;;;6.08;;
56680;SDS011;42558;52.388;13.390;2023-07-31T10:51:08;12.35;;;6.46;;
56680;SDS011;42558;52.388;13.390;2023-07-31T10:53:40;12.54;;;6.08;;
56680;SDS011;42558;52.388;13.390;2023-07-31T10:56:11;12.73;;;5.51;;
56680;SDS011;42558;52.388;13.390;2023-07-31T10:58:44;9.88;;;5.89;;
56680;SDS011;42558;52.388;13.390;2023-07-31T11:01:14;14.82;;;5.89;;
56680;SDS011;42558;52.388;13.390;2023-07-31T11:03:46;12.92;;;6.08;;
56680;SDS011;42558;52.388;13.390;2023-07-31T11:06:18;10.64;;;5.51;;
56680;SDS011;42558;52.388;13.390;2023-07-31T11:08:47;13.11;;;5.89;;
56680;SDS011;42558;52.388;13.390;2023-07-31T11:11:19;14.82;;;5.89;;
56680;SDS011;42558;52.388;13.390;2023-07-31T11:13:50;11.40;;;5.51;;
56680;SDS011;42558;52.388;13.390;2023-07-31T11:16:24;13.30;;;5.13;;
56680;SDS011;42558;52.388;13.390;2023-07-31T11:18:54;11.40;;;5.51;;
56680;SDS011;42558;52.388;13.390;2023-07-31T11:21:24;8.74;;;5.13;;
56680;SDS011;42558;52.388;13.390;2023-07-31T11:23:58;12.54;;;4.94;;
56680;SDS011;42558;52.388;13.390;2023-07-31T11:26:27;9.69;;;5.32;;
56680;SDS011;42558;52.388;13.390;2023-07-31T11:28:57;12.54;;;5.32;;
56680;SDS011;42558;52.388;13.390;2023-07-31T11:31:27;11.40;;;5.32;;
56680;SDS011;42558;52.388;13.390;2023-07-31T11:34:15;10.26;;;5.13;;
56680;SDS011;42558;52.388;13.390;2023-07-31T11:36:55;8.55;;;4.75;;
56680;SDS011;42558;52.388;13.390;2023-07-31T11:39:23;10.26;;;5.70;;
56680;SDS011;42558;52.388;13.390;2023-07-31T11:41:59;11.02;;;5.32;;
56680;SDS011;42558;52.388;13.390;2023-07-31T11:44:37;11.40;;;4.94;;
56680;SDS011;42558;52.388;13.390;2023-07-31T11:51:21;10.26;;;5.32;;
56680;SDS011;42558;52.388;13.390;2023-07-31T11:53:52;10.07;;;5.32;;
56680;SDS011;42558;52.388;13.390;2023-07-31T11:56:26;12.16;;;5.32;;
56680;SDS011;42558;52.388;13.390;2023-07-31T11:59:01;12.73;;;4.94;;
56680;SDS011;42558;52.388;13.390;2023-07-31T12:01:32;10.64;;;5.70;;
56680;SDS011;42558;52.388;13.390;2023-07-31T12:04:03;11.78;;;4.94;;
56680;SDS011;42558;52.388;13.390;2023-07-31T12:06:35;11.97;;;5.13;;
56680;SDS011;42558;52.388;13.390;2023-07-31T12:09:06;11.97;;;4.94;;
56680;SDS011;42558;52.388;13.390;2023-07-31T12:11:43;13.87;;;5.32;;
56680;SDS011;42558;52.388;13.390;2023-07-31T12:14:27;8.17;;;4.94;;
56680;SDS011;42558;52.388;13.390;2023-07-31T12:17:03;9.31;;;4.75;;
56680;SDS011;42558;52.388;13.390;2023-07-31T12:19:34;11.02;;;5.13;;
56680;SDS011;42558;52.388;13.390;2023-07-31T12:22:02;11.97;;;4.75;;
56680;SDS011;42558;52.388;13.390;2023-07-31T12:24:42;11.21;;;4.94;;
56680;SDS011;42558;52.388;13.390;2023-07-31T12:27:15;9.69;;;3.99;;
56680;SDS011;42558;52.388;13.390;2023-07-31T12:29:46;10.45;;;4.56;;
56680;SDS011;42558;52.388;13.390;2023-07-31T12:32:21;10.26;;;4.94;;
56680;SDS011;42558;52.388;13.390;2023-07-31T12:34:52;13.30;;;4.94;;
56680;SDS011;42558;52.388;13.390;2023-07-31T12:37:22;11.02;;;4.75;;
56680;SDS011;42558;52.388;13.390;2023-07-31T12:39:52;10.83;;;3.99;;
56680;SDS011;42558;52.388;13.390;2023-07-31T12:42:20;9.12;;;3.42;;
56680;SDS011;42558;52.388;13.390;2023-07-31T12:44:48;8.55;;;3.42;;
56680;SDS011;42558;52.388;13.390;2023-07-31T12:47:17;9.69;;;3.23;;
56680;SDS011;42558;52.388;13.390;2023-07-31T12:49:47;11.21;;;4.75;;
56680;SDS011;42558;52.388;13.390;2023-07-31T12:52:15;8.17;;;3.61;;
56680;SDS011;42558;52.388;13.390;2023-07-31T12:54:44;8.36;;;3.61;;
56680;SDS011;42558;52.388;13.390;2023-07-31T12:57:13;9.69;;;3.99;;
56680;SDS011;42558;52.388;13.390;2023-07-31T12:59:42;7.22;;;3.04;;
56680;SDS011;42558;52.388;13.390;2023-07-31T13:02:12;8.17;;;3.99;;
56680;SDS011;42558;52.388;13.390;2023-07-31T13:04:41;11.59;;;4.94;;
56680;SDS011;42558;52.388;13.390;2023-07-31T13:07:10;8.93;;;3.80;;
56680;SDS011;42558;52.388;13.390;2023-07-31T13:09:39;9.12;;;4.37;;
56680;SDS011;42558;52.388;13.390;2023-07-31T13:12:08;8.55;;;4.37;;
56680;SDS011;42558;52.388;13.390;2023-07-31T13:14:38;12.92;;;5.13;;
56680;SDS011;42558;52.388;13.390;2023-07-31T13:17:08;8.74;;;4.37;;
56680;SDS011;42558;52.388;13.390;2023-07-31T13:19:38;10.26;;;4.18;;
56680;SDS011;42558;52.388;13.390;2023-07-31T13:22:07;8.93;;;4.56;;
56680;SDS011;42558;52.388;13.390;2023-07-31T13:24:37;10.64;;;4.56;;
56680;SDS011;42558;52.388;13.390;2023-07-31T13:27:07;11.40;;;4.56;;
56680;SDS011;42558;52.388;13.390;2023-07-31T13:29:37;10.83;;;5.51;;
56680;SDS011;42558;52.388;13.390;2023-07-31T13:32:07;8.93;;;4.94;;
56680;SDS011;42558;52.388;13.390;2023-07-31T13:34:37;9.31;;;4.94;;
56680;SDS011;42558;52.388;13.390;2023-07-31T13:37:07;11.21;;;5.32;;
56680;SDS011;42558;52.388;13.390;2023-07-31T13:39:37;11.59;;;4.94;;
56680;SDS011;42558;52.388;13.390;2023-07-31T13:42:08;12.92;;;5.51;;
56680;SDS011;42558;52.388;13.390;2023-07-31T13:44:43;12.73;;;5.51;;
56680;SDS011;42558;52.388;13.390;2023-07-31T13:47:11;11.21;;;5.32;;
56680;SDS011;42558;52.388;13.390;2023-07-31T13:49:41;9.50;;;4.56;;
56680;SDS011;42558;52.388;13.390;2023-07-31T13:52:12;9.69;;;4.75;;
56680;SDS011;42558;52.388;13.390;2023-07-31T13:54:42;11.02;;;5.51;;
56680;SDS011;42558;52.388;13.390;2023-07-31T13:57:12;10.83;;;5.70;;
56680;SDS011;42558;52.388;13.390;2023-07-31T13:59:42;12.54;;;5.70;;
56680;SDS011;42558;52.388;13.390;2023-07-31T14:02:12;11.97;;;5.32;;
56680;SDS011;42558;52.388;13.390;2023-07-31T14:04:43;9.50;;;4.75;;
56680;SDS011;42558;52.388;13.390;2023-07-31T14:07:13;10.26;;;4.94;;
56680;SDS011;42558;52.388;13.390;2023-07-31T14:09:43;13.49;;;5.51;;
56680;SDS011;42558;52.388;13.390;2023-07-31T14:12:13;10.83;;;5.51;;
56680;SDS011;42558;52.388;13.390;2023-07-31T14:14:53;12.35;;;6.08;;
56680;SDS011;42558;52.388;13.390;2023-07-31T14:17:22;10.26;;;5.70;;
56680;SDS011;42558;52.388;13.390;2023-07-31T14:19:51;11.78;;;4.18;;
56680;SDS011;42558;52.388;13.390;2023-07-31T14:22:29;13.87;;;5.51;;
56680;SDS011;42558;52.388;13.390;2023-07-31T14:24:59;9.31;;;4.56;;
56680;SDS011;42558;52.388;13.390;2023-07-31T14:27:29;10.83;;;5.51;;
56680;SDS011;42558;52.388;13.390;2023-07-31T14:29:56;11.59;;;5.89;;
56680;SDS011;42558;52.388;13.390;2023-07-31T14:32:26;10.45;;;4.56;;
56680;SDS011;42558;52.388;13.390;2023-07-31T14:34:56;10.07;;;4.94;;
56680;SDS011;42558;52.388;13.390;2023-07-31T14:37:26;10.64;;;6.65;;
56680;SDS011;42558;52.388;13.390;2023-07-31T14:43:14;11.78;;;4.75;;
56680;SDS011;42558;52.388;13.390;2023-07-31T14:45:44;11.59;;;5.51;;
56680;SDS011;42558;52.388;13.390;2023-07-31T14:48:15;12.54;;;4.75;;
56680;SDS011;42558;52.388;13.390;2023-07-31T14:50:44;10.83;;;5.51;;
56680;SDS011;42558;52.388;13.390;2023-07-31T14:53:12;10.07;;;5.32;;
56680;SDS011;42558;52.388;13.390;2023-07-31T14:55:41;13.11;;;5.70;;
56680;SDS011;42558;52.388;13.390;2023-07-31T14:58:09;11.40;;;5.13;;